Time;durP1;ratioP1;P1;durP2;ratioP2;P2;SDS_P1;SDS_P2;PMS_P1;PMS_P2;Temp;Humidity;BMP_temperature;BMP_pressure;BME280_temperature;BME280_humidity;BME280_pressure;Samples;Min_cycle;Max_cycle;Signal;HPM_P1;HPM_P2
2024/01/24 00:00:30;;;;;;;7.68;1.58;;;12.10;99.90;;;;;;5032609;28;20406;-76
2024/01/24 00:02:55;;;;;;;4.18;1.83;;;12.10;99.90;;;;;;5025350;28;20038;-76
2024/01/24 00:05:21;;;;;;;3.80;1.35;;;12.10;99.90;;;;;;5031542;28;20041;-77
2024/01/24 00:07:47;;;;;;;6.30;1.90;;;12.10;99.90;;;;;;5031948;28;20045;-77
2024/01/24 00:10:12;;;;;;;6.75;1.40;;;12.10;99.90;;;;;;5032412;28;20477;-76
2024/01/24 00:12:38;;;;;;;5.88;1.50;;;12.20;99.90;;;;;;5030187;28;20033;-76
2024/01/24 00:15:04;;;;;;;6.35;1.58;;;12.20;99.90;;;;;;5031699;28;20516;-77
2024/01/24 00:17:30;;;;;;;9.75;1.85;;;12.20;99.90;;;;;;5015562;28;20449;-77
2024/01/24 00:19:55;;;;;;;7.32;1.52;;;12.20;99.90;;;;;;5015953;28;20045;-77
2024/01/24 00:22:21;;;;;;;7.38;1.88;;;12.10;99.90;;;;;;5029884;28;20033;-77
2024/01/24 00:24:46;;;;;;;7.68;1.60;;;12.30;99.90;;;;;;5015508;28;20041;-78
2024/01/24 00:27:12;;;;;;;6.97;1.35;;;12.10;99.90;;;;;;5030437;28;20394;-77
2024/01/24 00:29:38;;;;;;;8.30;2.25;;;12.10;99.90;;;;;;5032162;28;20532;-77
2024/01/24 00:32:04;;;;;;;7.28;1.45;;;12.20;99.90;;;;;;5031318;28;20040;-77
2024/01/24 00:34:29;;;;;;;4.38;1.27;;;12.10;99.90;;;;;;5011934;28;20025;-78
2024/01/24 00:36:55;;;;;;;9.90;2.10;;;12.10;99.90;;;;;;5015339;28;20332;-78
2024/01/24 00:39:21;;;;;;;7.85;1.55;;;12.30;99.90;;;;;;5031428;28;20045;-78
2024/01/24 00:41:47;;;;;;;8.02;1.92;;;12.20;99.90;;;;;;5015626;28;20486;-78
2024/01/24 00:44:13;;;;;;;7.30;1.98;;;12.10;99.90;;;;;;4997758;28;20041;-78
2024/01/24 00:46:40;;;;;;;9.50;1.80;;;12.10;99.90;;;;;;4995904;28;20052;-78
2024/01/24 00:49:10;;;;;;;9.07;1.67;;;12.00;99.90;;;;;;5028639;28;20088;-78
2024/01/24 00:51:36;;;;;;;10.23;1.63;;;12.00;99.90;;;;;;5027823;28;20041;-80
2024/01/24 00:54:03;;;;;;;4.82;1.20;;;12.10;99.90;;;;;;5030825;28;20041;-79
2024/01/24 00:56:29;;;;;;;6.57;1.75;;;12.20;99.90;;;;;;5031644;28;20041;-79
2024/01/24 00:58:54;;;;;;;8.07;1.20;;;12.20;99.90;;;;;;5031772;28;20064;-79
2024/01/24 01:01:20;;;;;;;7.55;1.13;;;12.20;99.90;;;;;;5015202;28;20037;-78
2024/01/24 01:03:46;;;;;;;6.53;1.63;;;12.00;99.90;;;;;;5030119;28;20120;-77
2024/01/24 01:06:11;;;;;;;6.38;1.30;;;12.20;99.90;;;;;;5031472;28;20068;-79
2024/01/24 01:08:37;;;;;;;8.18;1.60;;;12.20;99.90;;;;;;5031711;28;20125;-78
2024/01/24 01:11:05;;;;;;;6.93;1.33;;;12.30;99.90;;;;;;5030834;28;20039;-77
2024/01/24 01:13:33;;;;;;;8.43;1.55;;;12.30;99.90;;;;;;5014584;28;20068;-78
2024/01/24 01:15:58;;;;;;;5.78;1.60;;;12.30;99.90;;;;;;5013869;28;20125;-77
2024/01/24 01:18:24;;;;;;;7.47;1.90;;;12.30;99.90;;;;;;5031699;28;20478;-79
2024/01/24 01:20:50;;;;;;;9.52;1.23;;;12.40;99.90;;;;;;5031587;28;20041;-79
2024/01/24 01:23:16;;;;;;;7.93;1.50;;;12.30;99.90;;;;;;5031001;28;20399;-79
2024/01/24 01:25:41;;;;;;;6.82;1.63;;;12.20;99.90;;;;;;5029498;28;20486;-78
2024/01/24 01:28:07;;;;;;;6.15;1.27;;;12.20;99.90;;;;;;5015369;28;20068;-78
2024/01/24 01:30:32;;;;;;;6.18;1.15;;;12.20;99.90;;;;;;5014991;28;20045;-79
2024/01/24 01:32:58;;;;;;;4.80;1.10;;;12.30;99.90;;;;;;5030933;28;20123;-80
2024/01/24 01:35:24;;;;;;;3.90;0.95;;;12.30;99.90;;;;;;5013293;28;20033;-79
2024/01/24 01:37:49;;;;;;;2.80;1.10;;;12.30;99.90;;;;;;5030768;28;20091;-80
2024/01/24 01:40:15;;;;;;;5.88;1.13;;;12.30;99.90;;;;;;5015192;28;20449;-79
2024/01/24 01:42:44;;;;;;;5.82;0.93;;;12.30;99.90;;;;;;5014873;28;20049;-78
2024/01/24 01:45:10;;;;;;;6.53;1.10;;;12.20;99.90;;;;;;5011533;28;20148;-79
2024/01/24 01:47:37;;;;;;;3.33;0.95;;;12.40;99.90;;;;;;5014197;28;20069;-80
2024/01/24 01:50:05;;;;;;;4.60;1.33;;;12.30;99.90;;;;;;5035201;28;20107;-78
2024/01/24 01:52:31;;;;;;;5.80;1.83;;;12.30;99.90;;;;;;5034993;28;20033;-80
2024/01/24 01:54:57;;;;;;;8.77;1.60;;;12.40;99.90;;;;;;5030120;28;20042;-80
2024/01/24 01:57:23;;;;;;;5.20;1.15;;;12.30;99.90;;;;;;5032706;28;20048;-79
2024/01/24 01:59:49;;;;;;;6.82;1.17;;;12.30;99.90;;;;;;5034828;28;20517;-80
2024/01/24 02:02:15;;;;;;;6.18;1.20;;;12.40;99.90;;;;;;5034248;28;20075;-80
2024/01/24 02:04:41;;;;;;;6.68;1.23;;;12.40;99.90;;;;;;5018037;28;20493;-79
2024/01/24 02:07:06;;;;;;;5.57;1.17;;;12.30;99.90;;;;;;5028091;28;20046;-79
2024/01/24 02:09:34;;;;;;;8.35;1.17;;;12.20;99.90;;;;;;5034615;28;20045;-80
2024/01/24 02:11:59;;;;;;;4.57;1.02;;;12.40;99.90;;;;;;5034727;28;20532;-79
2024/01/24 02:14:25;;;;;;;6.10;1.10;;;12.50;99.90;;;;;;5017812;28;20069;-81
2024/01/24 02:16:50;;;;;;;3.20;0.85;;;12.30;99.90;;;;;;5016088;28;20072;-81
2024/01/24 02:19:16;;;;;;;3.92;1.00;;;12.30;99.90;;;;;;5018106;28;20042;-81
2024/01/24 02:21:42;;;;;;;3.80;0.80;;;12.30;99.90;;;;;;5034523;28;20045;-81
2024/01/24 02:24:10;;;;;;;5.13;1.20;;;12.40;99.90;;;;;;5033785;28;20049;-80
2024/01/24 02:26:35;;;;;;;7.28;1.38;;;12.30;99.90;;;;;;5016150;28;20505;-81
2024/01/24 02:29:01;;;;;;;5.85;1.23;;;12.20;99.90;;;;;;5033866;28;20124;-81
2024/01/24 02:31:27;;;;;;;10.40;1.40;;;12.20;99.90;;;;;;5017937;28;20049;-81
2024/01/24 02:33:52;;;;;;;9.00;1.63;;;12.00;99.90;;;;;;5017732;28;20029;-81
2024/01/24 02:36:18;;;;;;;4.90;1.05;;;12.10;99.90;;;;;;5015950;28;20038;-80
2024/01/24 02:38:44;;;;;;;7.40;1.10;;;12.10;99.90;;;;;;5016636;28;20037;-82
2024/01/24 02:41:09;;;;;;;5.63;1.27;;;12.10;99.90;;;;;;5015931;28;20442;-79
2024/01/24 02:43:35;;;;;;;6.50;1.50;;;12.10;99.90;;;;;;5017643;28;20087;-80
2024/01/24 02:46:01;;;;;;;5.95;1.08;;;12.10;99.90;;;;;;5007650;28;20132;-81
2024/01/24 02:48:27;;;;;;;6.38;1.75;;;12.10;99.90;;;;;;5010680;28;20041;-83
2024/01/24 02:50:53;;;;;;;4.97;2.08;;;12.10;99.90;;;;;;5020401;28;20053;-80
2024/01/24 02:53:19;;;;;;;7.28;1.85;;;12.00;99.90;;;;;;5013018;28;20047;-82
2024/01/24 02:55:46;;;;;;;10.43;1.60;;;12.00;99.90;;;;;;5014601;28;20538;-80
2024/01/24 02:58:12;;;;;;;10.18;1.58;;;11.90;99.90;;;;;;5010885;28;20041;-81
2024/01/24 03:00:37;;;;;;;6.68;1.10;;;12.20;99.90;;;;;;5022535;28;20060;-80
2024/01/24 03:03:04;;;;;;;6.72;1.42;;;12.20;99.90;;;;;;5017069;28;20045;-81
2024/01/24 03:05:29;;;;;;;9.10;1.98;;;12.00;99.90;;;;;;5028098;28;20401;-80
2024/01/24 03:07:57;;;;;;;11.20;2.05;;;12.00;99.90;;;;;;5032992;28;20525;-80
2024/01/24 03:10:25;;;;;;;8.40;1.52;;;12.00;99.90;;;;;;5034184;28;20048;-79
2024/01/24 03:12:51;;;;;;;6.03;1.77;;;11.90;99.90;;;;;;5033772;28;20385;-80
2024/01/24 03:15:17;;;;;;;10.00;1.70;;;11.90;99.90;;;;;;5048997;28;20090;-80
2024/01/24 03:17:43;;;;;;;12.73;1.58;;;11.90;99.90;;;;;;5036796;28;20055;-80
2024/01/24 03:20:10;;;;;;;9.70;1.88;;;12.00;99.90;;;;;;5032795;28;20052;-80
2024/01/24 03:22:36;;;;;;;12.07;2.17;;;11.80;99.90;;;;;;5033240;28;20697;-81
2024/01/24 03:25:02;;;;;;;12.50;2.30;;;11.70;99.90;;;;;;5030071;28;20040;-81
2024/01/24 03:27:27;;;;;;;14.88;2.85;;;11.60;99.90;;;;;;5039677;28;20040;-82
2024/01/24 03:29:53;;;;;;;13.85;3.22;;;11.50;99.90;;;;;;5014198;28;20191;-81
2024/01/24 03:32:19;;;;;;;10.50;2.38;;;11.50;99.90;;;;;;5016031;28;20075;-79
2024/01/24 03:34:57;;;;;;;9.75;2.28;;;11.60;99.90;;;;;;5036313;28;20037;-80
2024/01/24 03:37:23;;;;;;;15.93;2.95;;;11.40;99.90;;;;;;5020623;28;20120;-80
2024/01/24 03:39:49;;;;;;;17.65;2.47;;;11.50;99.90;;;;;;5015966;28;20586;-81
2024/01/24 03:42:14;;;;;;;13.32;2.65;;;11.50;99.90;;;;;;5033352;28;20048;-81
2024/01/24 03:44:40;;;;;;;18.30;2.53;;;11.40;99.90;;;;;;5008908;28;20036;-79
2024/01/24 03:47:06;;;;;;;11.90;2.90;;;11.50;99.90;;;;;;5055026;28;21179;-82
2024/01/24 03:49:32;;;;;;;17.02;2.88;;;11.50;99.90;;;;;;5036937;28;20424;-81
2024/01/24 03:51:57;;;;;;;10.57;2.03;;;11.40;99.90;;;;;;5021273;28;20071;-80
2024/01/24 03:54:23;;;;;;;17.08;2.85;;;11.30;99.90;;;;;;5033965;28;20097;-80
2024/01/24 03:56:49;;;;;;;20.50;3.13;;;11.30;99.90;;;;;;5033619;28;20123;-80
2024/01/24 03:59:15;;;;;;;15.63;2.53;;;11.40;99.90;;;;;;5036547;28;20360;-81
2024/01/24 04:01:41;;;;;;;11.05;2.53;;;11.30;99.90;;;;;;5033072;28;20511;-80
2024/01/24 04:04:07;;;;;;;19.83;3.17;;;11.40;99.90;;;;;;5014694;28;20068;-82
2024/01/24 04:06:33;;;;;;;11.55;2.40;;;11.40;99.90;;;;;;5033247;28;20044;-80
2024/01/24 04:08:59;;;;;;;14.02;2.97;;;11.40;99.90;;;;;;5034398;28;20044;-80
2024/01/24 04:11:24;;;;;;;14.88;2.53;;;11.40;99.90;;;;;;5016517;28;20489;-79
2024/01/24 04:13:53;;;;;;;10.05;2.13;;;11.50;99.90;;;;;;5034517;28;20074;-80
2024/01/24 04:16:19;;;;;;;13.48;3.33;;;11.50;99.90;;;;;;5048249;28;20041;-80
2024/01/24 04:18:45;;;;;;;15.77;2.47;;;11.50;99.90;;;;;;5038186;28;20029;-79
2024/01/24 04:21:11;;;;;;;16.55;3.38;;;11.50;99.90;;;;;;5050958;28;20052;-79
2024/01/24 04:23:37;;;;;;;13.82;3.00;;;11.50;99.90;;;;;;5034825;28;20200;-79
2024/01/24 04:26:04;;;;;;;16.27;3.33;;;11.40;99.90;;;;;;5015012;28;20564;-79
2024/01/24 04:28:30;;;;;;;16.83;3.20;;;11.50;99.90;;;;;;5031697;28;20135;-79
2024/01/24 04:30:56;;;;;;;16.73;4.00;;;11.40;99.90;;;;;;5050747;28;20048;-80
2024/01/24 04:33:22;;;;;;;18.80;3.20;;;11.40;99.90;;;;;;5016155;28;20063;-80
2024/01/24 04:35:47;;;;;;;14.77;2.63;;;11.40;99.90;;;;;;5015573;28;20211;-80
2024/01/24 04:38:13;;;;;;;19.63;2.95;;;11.40;99.90;;;;;;5049450;28;20040;-81
2024/01/24 04:40:39;;;;;;;12.63;2.67;;;11.40;99.90;;;;;;5033251;28;20033;-80
2024/01/24 04:43:04;;;;;;;19.17;3.33;;;11.40;99.90;;;;;;5026282;28;20040;-81
2024/01/24 04:45:30;;;;;;;17.10;3.20;;;11.30;99.90;;;;;;5032322;28;20070;-81
2024/01/24 04:47:56;;;;;;;19.10;3.15;;;11.30;99.90;;;;;;5022265;28;20044;-80
2024/01/24 04:50:21;;;;;;;20.65;4.60;;;11.20;99.90;;;;;;5032523;28;20052;-81
2024/01/24 04:52:47;;;;;;;19.13;3.72;;;11.00;99.90;;;;;;5035816;28;20040;-80
2024/01/24 04:55:13;;;;;;;20.13;2.92;;;11.00;99.90;;;;;;5036215;28;20042;-80
2024/01/24 04:57:39;;;;;;;18.25;3.92;;;11.10;99.90;;;;;;5009752;28;20055;-80
2024/01/24 05:00:09;;;;;;;21.33;3.47;;;11.00;99.90;;;;;;5016030;28;20056;-80
2024/01/24 05:02:35;;;;;;;20.55;4.07;;;10.90;99.90;;;;;;5017095;28;20657;-81
2024/01/24 05:05:01;;;;;;;21.70;4.57;;;10.90;99.90;;;;;;5027815;28;20036;-80
2024/01/24 05:07:27;;;;;;;23.67;4.72;;;10.80;99.90;;;;;;5032655;28;20581;-83
2024/01/24 05:09:53;;;;;;;12.10;3.08;;;10.80;99.90;;;;;;5014260;28;20041;-81
2024/01/24 05:12:19;;;;;;;21.10;3.92;;;10.80;99.90;;;;;;5027480;28;20036;-81
2024/01/24 05:14:45;;;;;;;26.42;4.72;;;10.60;99.90;;;;;;5018766;28;20036;-81
2024/01/24 05:17:11;;;;;;;24.25;4.72;;;10.60;99.90;;;;;;5011532;28;20037;-80
2024/01/24 05:19:36;;;;;;;22.23;4.25;;;10.70;99.90;;;;;;5009811;28;20041;-80
2024/01/24 05:22:02;;;;;;;23.08;3.75;;;10.70;99.90;;;;;;5013916;28;20036;-81
2024/01/24 05:24:28;;;;;;;20.25;4.88;;;10.70;99.90;;;;;;5040344;28;21305;-81
2024/01/24 05:26:53;;;;;;;25.90;4.65;;;10.70;99.90;;;;;;5035922;28;20043;-81
2024/01/24 05:29:19;;;;;;;27.30;4.88;;;10.70;99.90;;;;;;5015528;28;20044;-81
2024/01/24 05:31:45;;;;;;;26.08;4.53;;;10.60;99.90;;;;;;5018454;28;20037;-80
2024/01/24 05:34:11;;;;;;;22.10;3.72;;;10.70;99.90;;;;;;5025964;28;20527;-78
2024/01/24 05:36:37;;;;;;;22.65;3.92;;;10.80;99.90;;;;;;5019288;28;20167;-81
2024/01/24 05:39:06;;;;;;;21.30;4.15;;;10.80;99.90;;;;;;5018672;28;20142;-81
2024/01/24 05:41:32;;;;;;;26.05;4.50;;;10.80;99.90;;;;;;5018815;28;20047;-79
2024/01/24 05:43:58;;;;;;;18.15;4.00;;;10.80;99.90;;;;;;5033446;28;21145;-81
2024/01/24 05:46:23;;;;;;;23.33;4.80;;;10.70;99.90;;;;;;5022383;28;20045;-81
2024/01/24 05:48:49;;;;;;;22.13;5.33;;;10.80;99.90;;;;;;5038353;28;20037;-80
2024/01/24 05:51:15;;;;;;;25.05;3.97;;;10.90;99.90;;;;;;5051932;28;20828;-80
2024/01/24 05:53:41;;;;;;;27.40;5.60;;;10.80;99.90;;;;;;5018479;28;20040;-79
2024/01/24 05:56:07;;;;;;;21.30;4.47;;;10.80;99.90;;;;;;5039592;28;20085;-80
2024/01/24 05:58:34;;;;;;;21.85;5.00;;;10.70;99.90;;;;;;5047014;28;21199;-80
2024/01/24 06:00:59;;;;;;;28.10;5.38;;;10.70;99.90;;;;;;5017215;28;20400;-79
2024/01/24 06:03:25;;;;;;;20.48;5.00;;;10.80;99.90;;;;;;5018934;28;20040;-79
2024/01/24 06:05:51;;;;;;;24.40;4.45;;;10.80;99.90;;;;;;5028076;28;20032;-80
2024/01/24 06:08:17;;;;;;;24.70;4.00;;;10.60;99.90;;;;;;5035024;28;20130;-80
2024/01/24 06:10:42;;;;;;;25.48;5.63;;;10.50;99.90;;;;;;5062553;28;20036;-81
2024/01/24 06:13:08;;;;;;;29.92;5.40;;;10.50;99.90;;;;;;5036816;28;20063;-81
2024/01/24 06:15:33;;;;;;;23.17;4.55;;;10.50;99.90;;;;;;5034277;28;20036;-82
2024/01/24 06:17:59;;;;;;;28.55;6.10;;;10.50;99.90;;;;;;5026445;28;20040;-81
2024/01/24 06:20:25;;;;;;;31.05;5.30;;;10.60;99.90;;;;;;5017965;28;20045;-81
2024/01/24 06:22:51;;;;;;;28.90;6.43;;;10.60;99.90;;;;;;5020391;28;20047;-82
2024/01/24 06:25:17;;;;;;;25.27;5.78;;;10.50;99.90;;;;;;5017654;28;20653;-81
2024/01/24 06:27:42;;;;;;;26.23;5.00;;;10.50;99.90;;;;;;5027418;28;20052;-81
2024/01/24 06:30:09;;;;;;;31.80;5.97;;;10.50;99.90;;;;;;5034482;28;20574;-81
2024/01/24 06:32:35;;;;;;;17.27;3.75;;;10.50;99.90;;;;;;5030847;28;20141;-80
2024/01/24 06:35:01;;;;;;;24.80;4.68;;;10.60;99.90;;;;;;5017108;28;20169;-81
2024/01/24 06:37:27;;;;;;;28.85;5.68;;;10.70;99.90;;;;;;5034523;28;20115;-81
2024/01/24 06:39:52;;;;;;;20.45;4.60;;;10.60;99.90;;;;;;5059294;28;20085;-83
2024/01/24 06:42:18;;;;;;;20.33;4.20;;;10.60;99.90;;;;;;5055790;28;20435;-82
2024/01/24 06:44:43;;;;;;;21.30;4.75;;;10.60;99.90;;;;;;5031308;28;20556;-81
2024/01/24 06:47:09;;;;;;;22.60;3.85;;;10.50;99.90;;;;;;5040844;28;20174;-81
2024/01/24 06:49:35;;;;;;;21.80;5.45;;;10.50;99.90;;;;;;5040637;28;20109;-81
2024/01/24 06:52:00;;;;;;;24.20;4.28;;;10.60;99.90;;;;;;5039734;28;20127;-81
2024/01/24 06:54:27;;;;;;;23.67;3.92;;;10.40;99.90;;;;;;5040635;28;20041;-81
2024/01/24 06:56:52;;;;;;;30.58;5.85;;;10.40;99.90;;;;;;5039657;28;20035;-81
2024/01/24 06:59:18;;;;;;;22.75;4.55;;;10.40;99.90;;;;;;5056378;28;20497;-80
2024/01/24 07:01:44;;;;;;;27.10;5.72;;;10.40;99.90;;;;;;5055973;28;20396;-82
2024/01/24 07:04:09;;;;;;;23.25;3.88;;;10.50;99.90;;;;;;5057032;28;20040;-81
2024/01/24 07:06:35;;;;;;;22.83;4.55;;;10.40;99.90;;;;;;5037533;28;20041;-81
2024/01/24 07:09:01;;;;;;;25.35;5.10;;;10.40;99.90;;;;;;5056210;28;20052;-82
2024/01/24 07:11:26;;;;;;;24.20;5.28;;;10.20;99.90;;;;;;5049855;28;20029;-79
2024/01/24 07:13:53;;;;;;;23.20;5.13;;;10.40;99.90;;;;;;5061413;28;20029;-81
2024/01/24 07:16:18;;;;;;;23.00;5.28;;;10.40;99.90;;;;;;5054811;28;20036;-81
2024/01/24 07:18:44;;;;;;;19.45;3.83;;;10.40;99.90;;;;;;5056328;28;20093;-81
2024/01/24 07:21:10;;;;;;;25.42;5.43;;;10.30;99.90;;;;;;5040150;28;20044;-80
2024/01/24 07:23:35;;;;;;;25.08;5.50;;;10.30;99.90;;;;;;5055095;28;20044;-81
2024/01/24 07:26:02;;;;;;;30.65;5.53;;;10.40;99.90;;;;;;5054810;28;20036;-80
2024/01/24 07:28:29;;;;;;;22.10;4.90;;;10.30;99.90;;;;;;5056552;28;20403;-81
2024/01/24 07:30:55;;;;;;;25.45;5.38;;;10.40;99.90;;;;;;5038283;28;20082;-80
2024/01/24 07:33:21;;;;;;;19.50;4.05;;;10.40;99.90;;;;;;5038931;28;20029;-80
2024/01/24 07:35:46;;;;;;;20.92;4.35;;;10.40;99.90;;;;;;5053775;28;20032;-80
2024/01/24 07:38:12;;;;;;;26.13;4.55;;;10.40;99.90;;;;;;5038567;28;20043;-80
2024/01/24 07:40:38;;;;;;;25.67;5.28;;;10.30;99.90;;;;;;5055418;28;20466;-80
2024/01/24 07:43:04;;;;;;;25.63;5.05;;;10.40;99.90;;;;;;5039947;28;20048;-81
2024/01/24 07:45:29;;;;;;;33.58;5.97;;;10.20;99.90;;;;;;5052913;28;20480;-79
2024/01/24 07:47:55;;;;;;;29.45;5.97;;;10.10;99.90;;;;;;5051442;28;20049;-79
2024/01/24 07:50:21;;;;;;;34.35;5.75;;;10.20;99.90;;;;;;5055824;28;20086;-78
2024/01/24 07:52:46;;;;;;;19.73;3.55;;;10.20;99.90;;;;;;5055106;28;20045;-79
2024/01/24 07:55:13;;;;;;;27.02;6.45;;;10.30;99.90;;;;;;5021310;28;20028;-78
2024/01/24 07:57:39;;;;;;;25.10;5.07;;;10.20;99.90;;;;;;5040429;28;20036;-80
2024/01/24 08:00:06;;;;;;;34.03;6.95;;;10.20;99.90;;;;;;5053179;28;20056;-78
2024/01/24 08:02:32;;;;;;;23.83;5.55;;;10.30;99.90;;;;;;5039430;28;20443;-80
2024/01/24 08:04:57;;;;;;;20.55;5.38;;;10.30;99.90;;;;;;5054810;28;20090;-78
2024/01/24 08:07:23;;;;;;;33.22;5.32;;;10.30;99.90;;;;;;5039312;28;20086;-79
2024/01/24 08:09:49;;;;;;;20.10;4.22;;;10.30;99.90;;;;;;5037748;28;20033;-80
2024/01/24 08:12:15;;;;;;;27.45;4.97;;;10.20;99.90;;;;;;5038818;28;20047;-79
2024/01/24 08:14:40;;;;;;;29.15;5.20;;;10.20;99.90;;;;;;5051042;28;20037;-78
2024/01/24 08:17:10;;;;;;;26.00;5.22;;;10.10;99.90;;;;;;5034805;28;20037;-79
2024/01/24 08:19:36;;;;;;;25.42;4.65;;;10.10;99.90;;;;;;5052979;28;20090;-80
2024/01/24 08:22:03;;;;;;;30.00;5.15;;;10.20;99.90;;;;;;5038095;28;20033;-79
2024/01/24 08:24:29;;;;;;;21.58;4.63;;;10.20;99.90;;;;;;5050705;28;20078;-80
2024/01/24 08:26:55;;;;;;;27.70;5.30;;;10.30;99.90;;;;;;5055391;28;20651;-79
2024/01/24 08:29:21;;;;;;;22.27;4.70;;;10.20;99.90;;;;;;5038836;28;20509;-80
2024/01/24 08:31:46;;;;;;;26.92;5.55;;;10.10;99.90;;;;;;5037674;28;20388;-79
2024/01/24 08:34:12;;;;;;;25.23;4.63;;;10.10;99.90;;;;;;5051089;28;20032;-81
2024/01/24 08:36:39;;;;;;;25.33;4.40;;;10.20;99.90;;;;;;5052030;28;20469;-80
2024/01/24 08:39:06;;;;;;;24.80;4.68;;;10.20;99.90;;;;;;5019228;28;20037;-79
2024/01/24 08:41:32;;;;;;;26.38;5.75;;;10.30;99.90;;;;;;5039522;28;20032;-78
2024/01/24 08:43:58;;;;;;;25.63;5.43;;;10.20;99.90;;;;;;5036951;28;20059;-79
2024/01/24 08:46:24;;;;;;;29.95;5.03;;;10.30;99.90;;;;;;5051879;28;20064;-80
2024/01/24 08:48:50;;;;;;;32.50;6.43;;;10.10;99.90;;;;;;5037347;28;20041;-79
2024/01/24 08:51:16;;;;;;;22.45;4.88;;;10.10;99.90;;;;;;5055099;28;20044;-78
2024/01/24 08:53:42;;;;;;;31.70;5.07;;;10.20;99.90;;;;;;5053902;28;20035;-79
2024/01/24 08:56:09;;;;;;;28.70;5.65;;;10.20;99.90;;;;;;5053731;28;20170;-80
2024/01/24 08:58:37;;;;;;;29.65;5.82;;;10.20;99.90;;;;;;5031668;28;20064;-79
2024/01/24 09:01:02;;;;;;;29.05;5.95;;;10.20;99.90;;;;;;5031868;28;20052;-79
2024/01/24 09:03:28;;;;;;;30.17;7.18;;;10.10;99.90;;;;;;5029746;28;20034;-79
2024/01/24 09:05:54;;;;;;;30.02;5.65;;;10.10;99.90;;;;;;5030722;28;20456;-79
2024/01/24 09:08:19;;;;;;;25.98;5.03;;;10.10;99.90;;;;;;5015574;28;20107;-79
2024/01/24 09:10:45;;;;;;;27.15;6.28;;;10.10;99.90;;;;;;5031765;28;20513;-78
2024/01/24 09:13:12;;;;;;;29.65;6.70;;;10.30;99.90;;;;;;5028705;28;20045;-79
2024/01/24 09:15:38;;;;;;;27.13;5.82;;;10.10;99.90;;;;;;5006969;28;20026;-77
2024/01/24 09:18:04;;;;;;;32.50;6.13;;;10.00;99.90;;;;;;4995666;28;20049;-79
2024/01/24 09:20:30;;;;;;;22.20;4.47;;;9.90;99.90;;;;;;5028386;28;20044;-79
2024/01/24 09:22:55;;;;;;;22.80;5.90;;;9.90;99.90;;;;;;5001345;28;20045;-81
2024/01/24 09:25:21;;;;;;;27.60;5.57;;;10.10;99.90;;;;;;5012753;28;20081;-80
2024/01/24 09:27:47;;;;;;;29.05;5.43;;;10.10;99.90;;;;;;5031497;28;20048;-78
2024/01/24 09:30:13;;;;;;;23.80;6.35;;;10.20;99.90;;;;;;5015075;28;20042;-80
2024/01/24 09:32:39;;;;;;;21.05;4.63;;;10.20;99.90;;;;;;5014378;28;20045;-80
2024/01/24 09:35:05;;;;;;;30.58;4.90;;;10.10;99.90;;;;;;5013918;28;20474;-81
2024/01/24 09:37:30;;;;;;;25.63;4.78;;;10.10;99.90;;;;;;5012529;28;20398;-78
2024/01/24 09:39:56;;;;;;;30.23;5.25;;;10.10;99.90;;;;;;5015063;28;20087;-79
2024/01/24 09:42:27;;;;;;;25.73;5.75;;;10.10;99.90;;;;;;5031712;28;20049;-79
2024/01/24 09:44:57;;;;;;;30.77;6.22;;;10.00;99.90;;;;;;5012783;28;20033;-80
2024/01/24 09:47:24;;;;;;;23.38;4.70;;;10.10;99.90;;;;;;5002040;28;20560;-80
2024/01/24 09:49:51;;;;;;;28.13;5.03;;;10.00;99.90;;;;;;4995378;28;20121;-79
2024/01/24 09:52:24;;;;;;;23.58;5.15;;;10.00;99.90;;;;;;5028512;28;20132;-79
2024/01/24 09:54:55;;;;;;;26.17;4.53;;;10.00;99.90;;;;;;5043388;28;20038;-78
2024/01/24 09:57:22;;;;;;;30.60;5.80;;;10.10;99.90;;;;;;5030308;28;20033;-80
2024/01/24 09:59:48;;;;;;;26.75;6.15;;;10.10;99.90;;;;;;5031134;28;20128;-80
2024/01/24 10:02:14;;;;;;;25.50;4.00;;;10.10;99.90;;;;;;5014840;28;20041;-78
2024/01/24 10:04:43;;;;;;;26.60;5.68;;;10.10;99.90;;;;;;5028155;28;20064;-81
2024/01/24 10:07:10;;;;;;;24.67;4.88;;;10.20;99.90;;;;;;5028230;28;20049;-78
2024/01/24 10:09:35;;;;;;;23.73;4.53;;;10.20;99.90;;;;;;5032887;28;20049;-80
2024/01/24 10:12:01;;;;;;;25.00;4.18;;;10.20;99.90;;;;;;5034834;28;20044;-81
2024/01/24 10:14:28;;;;;;;21.75;5.07;;;10.30;99.90;;;;;;5016376;28;20129;-79
2024/01/24 10:16:53;;;;;;;30.08;5.65;;;10.30;99.90;;;;;;5022549;28;20029;-78
2024/01/24 10:19:24;;;;;;;23.77;4.32;;;10.40;99.90;;;;;;5031723;28;20486;-79
2024/01/24 10:21:50;;;;;;;28.10;5.05;;;10.30;99.90;;;;;;5017544;28;20393;-81
2024/01/24 10:24:16;;;;;;;30.95;5.32;;;10.40;99.90;;;;;;5017991;28;20124;-78
2024/01/24 10:26:44;;;;;;;27.98;5.40;;;10.30;99.90;;;;;;5015281;28;20133;-79
2024/01/24 10:29:11;;;;;;;24.55;3.78;;;10.40;99.90;;;;;;5033977;28;20569;-79
2024/01/24 10:31:37;;;;;;;24.15;6.03;;;10.40;99.90;;;;;;5017864;28;20494;-81
2024/01/24 10:34:06;;;;;;;21.88;4.30;;;10.40;99.90;;;;;;5017302;28;20128;-79
2024/01/24 10:36:32;;;;;;;28.38;5.05;;;10.50;99.90;;;;;;5032815;28;20041;-80
2024/01/24 10:39:00;;;;;;;28.77;5.13;;;10.40;99.90;;;;;;5032918;28;20044;-80
2024/01/24 10:41:31;;;;;;;23.77;4.75;;;10.50;99.90;;;;;;4999597;28;20037;-79
2024/01/24 10:44:09;;;;;;;25.58;4.45;;;10.50;99.90;;;;;;5014749;28;20053;-78
2024/01/24 10:46:36;;;;;;;19.55;3.67;;;10.60;99.90;;;;;;5000545;28;20442;-78
2024/01/24 10:49:03;;;;;;;28.30;5.13;;;10.60;99.90;;;;;;5007118;28;20044;-80
2024/01/24 10:51:29;;;;;;;23.27;4.63;;;10.60;99.90;;;;;;4997719;28;20041;-80
2024/01/24 10:53:56;;;;;;;28.98;4.50;;;10.70;99.90;;;;;;4998213;28;20038;-79
2024/01/24 10:56:24;;;;;;;18.88;4.20;;;10.60;99.90;;;;;;4997830;28;20120;-78
2024/01/24 10:58:49;;;;;;;28.85;5.13;;;10.70;99.90;;;;;;5044930;28;20053;-81
2024/01/24 11:01:16;;;;;;;23.02;5.13;;;10.80;99.90;;;;;;5052996;28;20053;-80
2024/01/24 11:03:45;;;;;;;28.85;5.10;;;10.70;99.90;;;;;;5053815;28;20044;-79
2024/01/24 11:06:16;;;;;;;26.35;5.68;;;10.70;99.90;;;;;;5053842;28;20128;-78
2024/01/24 11:09:06;;;;;;;30.63;5.15;;;10.80;99.90;;;;;;5050174;28;20029;-79
2024/01/24 11:11:34;;;;;;;22.38;4.88;;;10.70;99.90;;;;;;5052032;28;20041;-79
2024/01/24 11:14:01;;;;;;;23.55;4.38;;;10.60;99.90;;;;;;5037077;28;20037;-80
2024/01/24 11:16:34;;;;;;;22.30;4.57;;;10.70;99.90;;;;;;5053498;28;20037;-80
2024/01/24 11:19:22;;;;;;;21.52;4.88;;;10.70;99.90;;;;;;5065774;28;20040;-80
2024/01/24 11:21:48;;;;;;;18.45;4.00;;;10.60;99.90;;;;;;5036080;28;20041;-78
2024/01/24 11:24:46;;;;;;;25.73;4.40;;;10.70;99.90;;;;;;5028316;28;20049;-80
2024/01/24 11:27:25;;;;;;;28.70;4.90;;;10.70;99.90;;;;;;5046339;28;20091;-80
2024/01/24 11:29:51;;;;;;;22.80;3.92;;;10.60;99.90;;;;;;5034347;28;20068;-79
2024/01/24 11:32:45;;;;;;;25.10;5.00;;;10.60;99.90;;;;;;5036712;28;20048;-79
2024/01/24 11:35:37;;;;;;;22.92;4.90;;;10.60;99.90;;;;;;5053248;28;20036;-80
2024/01/24 11:38:24;;;;;;;26.00;4.87;;;10.60;99.90;;;;;;5026951;28;20033;-79
2024/01/24 11:40:59;;;;;;;22.00;3.80;;;10.50;99.90;;;;;;5034581;28;20045;-80
2024/01/24 11:43:28;;;;;;;20.92;4.15;;;10.50;99.90;;;;;;5053060;28;20045;-79
2024/01/24 11:46:02;;;;;;;23.90;4.95;;;10.50;99.90;;;;;;5053205;28;20393;-79
2024/01/24 11:48:29;;;;;;;21.42;4.25;;;10.50;99.90;;;;;;5034751;28;20493;-78
2024/01/24 11:50:58;;;;;;;21.75;3.90;;;10.50;99.90;;;;;;5047877;28;20094;-79
2024/01/24 11:53:25;;;;;;;25.70;5.20;;;10.50;99.90;;;;;;5052297;28;20078;-80
2024/01/24 11:55:59;;;;;;;28.45;5.05;;;10.50;99.90;;;;;;5053048;28;20120;-79
2024/01/24 11:58:27;;;;;;;22.92;3.90;;;10.50;99.90;;;;;;5044685;28;20049;-82
2024/01/24 12:00:59;;;;;;;21.88;4.60;;;10.50;99.90;;;;;;5052526;28;20506;-81
2024/01/24 12:03:25;;;;;;;24.85;4.07;;;10.50;99.90;;;;;;5037205;28;20476;-78
2024/01/24 12:05:52;;;;;;;25.27;4.22;;;10.60;99.90;;;;;;5055113;28;20048;-78
2024/01/24 12:08:18;;;;;;;25.58;5.90;;;10.50;99.90;;;;;;5031246;28;20032;-80
2024/01/24 12:10:44;;;;;;;28.13;5.47;;;10.50;99.90;;;;;;5033153;28;20055;-80
2024/01/24 12:13:10;;;;;;;25.25;3.65;;;10.50;99.90;;;;;;5052559;28;20044;-80
2024/01/24 12:15:36;;;;;;;23.58;4.47;;;10.50;99.90;;;;;;5054291;28;20044;-79
2024/01/24 12:18:08;;;;;;;21.83;5.13;;;10.50;99.90;;;;;;5051696;28;20055;-79
2024/01/24 12:20:34;;;;;;;25.42;4.45;;;10.50;99.90;;;;;;5048272;28;20048;-77
2024/01/24 12:23:02;;;;;;;19.75;4.32;;;10.60;99.90;;;;;;5031829;28;20036;-78
2024/01/24 12:25:28;;;;;;;23.55;3.92;;;10.60;99.90;;;;;;5029047;28;20078;-78
2024/01/24 12:27:56;;;;;;;22.95;4.65;;;10.50;99.90;;;;;;5026314;28;20041;-78
2024/01/24 12:30:22;;;;;;;17.73;3.30;;;10.60;99.90;;;;;;5052672;28;20047;-78
2024/01/24 12:32:48;;;;;;;24.10;4.65;;;10.60;99.90;;;;;;5052042;28;20041;-78
2024/01/24 12:35:16;;;;;;;22.90;4.22;;;10.50;99.90;;;;;;5055503;28;20397;-78